Time;durP1;ratioP1;P1;durP2;ratioP2;P2;SDS_P1;SDS_P2;PMS_P1;PMS_P2;Temp;Humidity;BMP_temperature;BMP_pressure;BME280_temperature;BME280_humidity;BME280_pressure;Samples;Min_cycle;Max_cycle;Signal;HPM_P1;HPM_P2
2022/06/16 00:00:15;;;;;;;4.40;2.70;;;;;;;21.99;40.56;93523.53;5029147;28;20033;-90
2022/06/16 00:02:42;;;;;;;3.33;2.15;;;;;;;21.99;40.60;93520.78;5007115;28;20079;-90
2022/06/16 00:05:09;;;;;;;5.78;2.47;;;;;;;22.00;40.50;93516.00;5042643;28;20041;-90
2022/06/16 00:07:35;;;;;;;4.68;2.50;;;;;;;21.99;40.74;93512.53;5027105;28;20037;-90
2022/06/16 00:10:02;;;;;;;4.90;3.17;;;;;;;22.00;40.41;93518.78;5026014;28;20305;-90
2022/06/16 00:12:28;;;;;;;4.43;2.42;;;;;;;21.98;40.60;93521.31;5024785;28;20115;-90
2022/06/16 00:14:53;;;;;;;4.93;2.08;;;;;;;21.98;40.50;93504.78;5047104;28;20033;-89
2022/06/16 00:17:19;;;;;;;4.25;2.22;;;;;;;21.98;40.58;93513.78;5028907;28;20045;-90
2022/06/16 00:19:44;;;;;;;5.00;2.67;;;;;;;21.97;40.82;93517.06;5046124;28;20103;-90
2022/06/16 00:22:10;;;;;;;3.60;2.30;;;;;;;21.97;40.60;93512.31;5045829;28;20083;-89
2022/06/16 00:24:35;;;;;;;4.03;2.50;;;;;;;21.99;40.67;93520.78;5034316;28;20060;-90
2022/06/16 00:27:01;;;;;;;3.55;2.10;;;;;;;21.97;40.84;93517.06;5025852;28;20038;-90
2022/06/16 00:29:27;;;;;;;3.65;2.25;;;;;;;21.97;40.69;93519.81;5026136;28;20322;-90
2022/06/16 00:31:52;;;;;;;2.28;2.08;;;;;;;21.97;40.81;93520.56;5019394;28;20038;-90
2022/06/16 00:34:18;;;;;;;3.25;2.60;;;;;;;21.97;40.75;93515.06;4992814;28;20104;-91
2022/06/16 00:36:43;;;;;;;6.18;2.53;;;;;;;21.97;40.90;93517.81;5045498;28;20041;-90
2022/06/16 00:39:08;;;;;;;3.72;2.35;;;;;;;21.96;40.92;93518.34;5020215;28;20038;-90
2022/06/16 00:41:34;;;;;;;3.92;2.25;;;;;;;21.95;40.56;93495.59;5019502;28;20040;-89
2022/06/16 00:44:00;;;;;;;3.85;2.25;;;;;;;21.93;40.87;93514.63;5012972;28;20060;-89
2022/06/16 00:46:28;;;;;;;3.38;2.20;;;;;;;21.96;40.82;93515.59;5012366;28;20047;-90
2022/06/16 00:48:58;;;;;;;2.92;2.13;;;;;;;21.94;40.79;93510.63;5045565;28;20123;-90
2022/06/16 00:51:31;;;;;;;3.38;2.30;;;;;;;21.94;40.97;93507.88;5028283;28;20790;-90
2022/06/16 00:54:06;;;;;;;2.55;2.20;;;;;;;21.93;40.79;93509.13;5029739;28;20037;-89
2022/06/16 00:56:32;;;;;;;3.15;2.42;;;;;;;21.95;40.78;93498.34;5045733;28;20124;-89
2022/06/16 00:58:58;;;;;;;3.50;2.00;;;;;;;21.94;40.91;93509.88;5012786;28;20044;-90
2022/06/16 01:01:24;;;;;;;4.60;2.28;;;;;;;21.95;40.98;93500.34;5022824;28;20029;-89
2022/06/16 01:06:37;;;;;;;5.53;2.28;;;;;;;21.92;41.11;93493.16;5035557;28;20044;-91
2022/06/16 01:09:07;;;;;;;3.28;2.08;;;;;;;21.92;40.95;93490.41;5032561;28;20090;-90
2022/06/16 01:14:53;;;;;;;2.65;2.08;;;;;;;21.90;41.10;93486.16;5049583;28;20044;-90
2022/06/16 01:17:37;;;;;;;3.22;1.88;;;;;;;21.91;41.01;93495.16;5042256;28;20303;-89
2022/06/16 01:20:39;;;;;;;3.38;2.13;;;;;;;21.89;41.15;93497.72;5032284;28;20068;-89
2022/06/16 01:23:23;;;;;;;3.95;2.00;;;;;;;21.89;40.95;93478.44;5032123;28;20216;-90
2022/06/16 01:26:14;;;;;;;2.13;1.60;;;;;;;21.89;41.18;93492.94;5033730;28;20518;-89
2022/06/16 01:29:12;;;;;;;2.35;1.70;;;;;;;21.89;41.25;93492.19;5050340;28;20041;-90
2022/06/16 01:32:00;;;;;;;3.00;1.98;;;;;;;21.88;40.89;93498.97;5032152;28;20044;-89
2022/06/16 01:34:28;;;;;;;2.53;1.70;;;;;;;21.88;41.14;93488.72;5034946;28;20036;-89
2022/06/16 01:37:15;;;;;;;2.40;1.75;;;;;;;21.87;41.10;93486.47;5032564;28;20061;-90
2022/06/16 01:39:55;;;;;;;2.88;1.92;;;;;;;21.88;41.22;93485.22;5028870;28;20601;-90
2022/06/16 01:42:23;;;;;;;2.65;1.65;;;;;;;21.88;41.14;93496.97;5016763;28;20048;-90
2022/06/16 01:45:08;;;;;;;3.53;2.22;;;;;;;21.87;41.09;93497.50;5032391;28;20053;-90
2022/06/16 01:47:34;;;;;;;2.15;1.95;;;;;;;21.86;41.14;93488.53;5049903;28;20037;-89
2022/06/16 01:50:09;;;;;;;2.78;2.00;;;;;;;21.86;41.02;93491.28;5031606;28;20056;-90
2022/06/16 01:52:37;;;;;;;2.22;1.70;;;;;;;21.86;41.14;93493.28;5031791;28;20041;-91
2022/06/16 01:55:08;;;;;;;2.55;1.80;;;;;;;21.85;41.25;93487.03;5031800;28;20044;-89
2022/06/16 01:57:38;;;;;;;3.17;1.83;;;;;;;21.86;41.20;93493.28;5016020;28;20037;-90
2022/06/16 02:00:06;;;;;;;3.13;2.07;;;;;;;21.86;41.10;93488.53;5015144;28;20079;-89
2022/06/16 02:02:32;;;;;;;2.60;2.10;;;;;;;21.86;41.36;93499.53;5048198;28;20048;-90
2022/06/16 02:05:05;;;;;;;2.47;2.03;;;;;;;21.83;41.25;93499.84;4999065;28;20559;-90
2022/06/16 02:07:33;;;;;;;2.47;1.67;;;;;;;21.86;41.22;93498.78;4999366;28;20037;-90
2022/06/16 02:09:59;;;;;;;2.03;1.80;;;;;;;21.86;41.31;93493.28;4999196;28;20037;-90
2022/06/16 02:13:09;;;;;;;2.25;1.90;;;;;;;21.84;41.38;93493.06;5014268;28;20510;-90
2022/06/16 02:15:38;;;;;;;3.72;2.08;;;;;;;21.84;41.40;93495.81;5019675;28;20376;-90
2022/06/16 02:18:08;;;;;;;2.17;1.70;;;;;;;21.85;41.23;93500.06;5048003;28;20063;-90
2022/06/16 02:20:39;;;;;;;2.33;1.90;;;;;;;21.84;41.33;93499.31;5031864;28;20040;-91
2022/06/16 02:23:04;;;;;;;1.98;1.70;;;;;;;21.85;41.21;93491.81;5014392;28;20393;-90
2022/06/16 02:25:30;;;;;;;2.50;1.95;;;;;;;21.85;41.23;93486.31;5014870;28;20036;-91
2022/06/16 02:27:55;;;;;;;2.50;2.00;;;;;;;21.84;41.41;93493.81;5025161;28;20033;-91
2022/06/16 02:30:22;;;;;;;2.00;1.70;;;;;;;21.82;41.33;93493.59;5030124;28;20045;-90
2022/06/16 02:32:56;;;;;;;2.20;1.70;;;;;;;21.83;41.36;93491.59;5031132;28;20039;-90
2022/06/16 02:35:33;;;;;;;2.90;1.90;;;;;;;21.82;41.50;93487.38;5047508;28;20033;-90
2022/06/16 02:38:18;;;;;;;2.38;1.80;;;;;;;21.82;41.62;93482.59;5048069;28;20052;-90
2022/06/16 02:40:46;;;;;;;2.47;2.00;;;;;;;21.82;41.51;93488.09;5046834;28;20044;-90
2022/06/16 02:43:18;;;;;;;2.40;1.73;;;;;;;21.81;41.49;93489.38;5048392;28;20047;-89
2022/06/16 02:46:03;;;;;;;2.72;1.52;;;;;;;21.82;41.39;93487.38;5049389;28;20124;-89
2022/06/16 02:48:47;;;;;;;2.38;1.70;;;;;;;21.82;41.58;93481.84;5013713;28;20033;-89
2022/06/16 02:51:12;;;;;;;1.77;1.67;;;;;;;21.80;41.56;93476.88;5026629;28;20417;-92
2022/06/16 02:54:12;;;;;;;2.15;1.55;;;;;;;21.80;41.49;93485.13;5027346;28;20037;-89
2022/06/16 02:56:56;;;;;;;2.15;1.80;;;;;;;21.81;41.57;93472.13;4996092;28;20047;-90
2022/06/16 02:59:36;;;;;;;2.85;1.95;;;;;;;21.80;41.41;93479.63;5028410;28;20037;-90
2022/06/16 03:02:06;;;;;;;2.03;1.77;;;;;;;21.81;41.51;93472.13;4971679;28;20433;-90
2022/06/16 03:04:44;;;;;;;2.30;1.77;;;;;;;21.79;41.56;93474.66;4987192;28;20104;-90
2022/06/16 03:07:11;;;;;;;3.55;1.80;;;;;;;21.81;41.42;93481.13;5027109;28;20045;-90
2022/06/16 03:09:37;;;;;;;1.70;1.38;;;;;;;21.81;41.61;93472.13;5011187;28;20068;-90
2022/06/16 03:12:03;;;;;;;2.70;1.42;;;;;;;21.79;41.56;93477.41;5026480;28;20037;-90
2022/06/16 03:14:29;;;;;;;1.70;1.48;;;;;;;21.79;41.71;93483.66;5010691;28;20045;-90
2022/06/16 03:16:54;;;;;;;2.35;1.52;;;;;;;21.81;41.53;93489.38;5004478;28;20053;-90
2022/06/16 03:19:22;;;;;;;1.88;1.55;;;;;;;21.81;41.50;93489.38;5026206;28;20045;-89
2022/06/16 03:21:47;;;;;;;2.17;1.67;;;;;;;21.83;41.36;93492.34;5027102;28;20064;-90
2022/06/16 03:24:13;;;;;;;2.20;1.80;;;;;;;21.82;41.61;93479.84;5026223;28;20399;-89
2022/06/16 03:26:38;;;;;;;2.10;1.80;;;;;;;21.82;41.45;93481.84;5009766;28;20026;-90
2022/06/16 03:29:03;;;;;;;1.90;1.67;;;;;;;21.84;41.54;93476.56;4976870;28;20045;-90
2022/06/16 03:31:29;;;;;;;2.65;2.08;;;;;;;21.86;41.52;93483.03;4991978;28;20373;-89
2022/06/16 03:33:58;;;;;;;2.55;1.70;;;;;;;21.85;41.36;93475.28;5026866;28;20068;-90
2022/06/16 03:36:23;;;;;;;2.33;2.00;;;;;;;21.86;41.23;93477.50;4993699;28;20492;-89
2022/06/16 03:38:49;;;;;;;1.75;1.52;;;;;;;21.89;41.38;93464.69;5043330;28;20046;-90
2022/06/16 03:41:14;;;;;;;1.92;1.48;;;;;;;21.92;41.42;93471.88;5009629;28;20044;-91
2022/06/16 03:43:40;;;;;;;3.20;1.77;;;;;;;21.94;41.39;93465.84;5010344;28;20037;-89
2022/06/16 03:46:05;;;;;;;1.55;1.17;;;;;;;21.93;41.33;93465.09;5009852;28;20057;-90
2022/06/16 03:48:31;;;;;;;1.90;1.60;;;;;;;21.95;41.30;93475.56;4993684;28;20033;-90
2022/06/16 03:50:57;;;;;;;2.10;1.77;;;;;;;21.96;41.29;93482.56;5005923;28;20392;-90
2022/06/16 03:53:22;;;;;;;1.63;1.52;;;;;;;21.96;41.38;93466.78;5045697;28;20044;-90
2022/06/16 03:55:48;;;;;;;2.40;1.73;;;;;;;21.95;41.38;93478.34;5022239;28;20557;-90
2022/06/16 03:58:16;;;;;;;1.55;1.42;;;;;;;21.94;41.42;93483.09;5045991;28;20048;-90
2022/06/16 04:00:41;;;;;;;2.28;1.48;;;;;;;21.96;41.24;93477.78;5013284;28;20115;-90
2022/06/16 04:05:51;;;;;;;2.28;1.45;;;;;;;21.96;41.46;93474.31;5039306;28;20060;-90
2022/06/16 04:08:16;;;;;;;1.60;1.35;;;;;;;21.98;41.41;93475.25;5013119;28;20049;-92
2022/06/16 04:10:43;;;;;;;1.67;1.55;;;;;;;21.97;41.21;93476.53;4996541;28;20040;-90
2022/06/16 04:13:09;;;;;;;2.38;1.85;;;;;;;21.98;41.34;93472.50;5012816;28;20068;-90
2022/06/16 04:15:37;;;;;;;2.45;1.55;;;;;;;22.01;41.20;93473.47;4996814;28;20145;-90
2022/06/16 04:18:02;;;;;;;2.70;1.70;;;;;;;22.02;41.17;93474.97;5012549;28;20033;-90
2022/06/16 04:20:28;;;;;;;1.40;1.30;;;;;;;22.02;41.29;93472.22;5030075;28;20086;-90
2022/06/16 04:22:53;;;;;;;2.08;1.88;;;;;;;22.04;41.24;93473.16;5012393;28;20060;-90
2022/06/16 04:25:21;;;;;;;1.38;1.27;;;;;;;22.04;41.26;93472.41;5045965;28;20252;-91
2022/06/16 04:27:47;;;;;;;1.55;1.45;;;;;;;22.08;41.11;93464.59;4994007;28;20338;-90
2022/06/16 04:30:13;;;;;;;1.83;1.27;;;;;;;22.07;41.26;93474.84;5012500;28;20385;-91
2022/06/16 04:32:38;;;;;;;1.33;1.23;;;;;;;22.08;41.17;93475.59;4996647;28;20480;-90
2022/06/16 04:35:04;;;;;;;3.35;1.30;;;;;;;22.12;41.09;93470.47;5012541;28;20033;-90
2022/06/16 04:37:31;;;;;;;3.83;1.95;;;;;;;22.08;41.11;93461.81;5013419;28;20056;-90
2022/06/16 04:39:56;;;;;;;1.88;1.50;;;;;;;22.09;41.37;93463.28;5030926;28;20175;-90
2022/06/16 04:42:21;;;;;;;2.55;1.60;;;;;;;22.14;41.09;93467.94;5032977;28;20482;-90
2022/06/16 04:44:47;;;;;;;3.60;1.48;;;;;;;22.11;41.40;93463.50;5016718;28;20041;-90
2022/06/16 04:47:12;;;;;;;1.95;1.20;;;;;;;22.14;41.46;93459.66;5032723;28;20029;-89
2022/06/16 04:49:38;;;;;;;1.65;1.40;;;;;;;22.15;41.04;93463.91;5033022;28;20044;-89
2022/06/16 04:52:04;;;;;;;2.47;1.30;;;;;;;22.17;40.94;93464.84;5032051;28;20044;-90
2022/06/16 04:54:30;;;;;;;1.30;0.90;;;;;;;22.16;41.25;93459.88;5016719;28;20088;-90
2022/06/16 04:56:55;;;;;;;2.40;1.10;;;;;;;22.21;41.14;93461.78;5000390;28;20049;-90
2022/06/16 04:59:21;;;;;;;1.20;1.10;;;;;;;22.20;41.18;93460.28;5000165;28;20371;-90
2022/06/16 05:01:46;;;;;;;1.15;0.88;;;;;;;22.21;41.01;93448.00;5022257;28;20526;-90
2022/06/16 05:04:11;;;;;;;1.33;0.98;;;;;;;22.25;41.12;93447.69;5014547;28;20041;-90
2022/06/16 05:06:37;;;;;;;2.20;1.52;;;;;;;22.21;41.24;93443.25;5000305;28;20033;-90
2022/06/16 05:09:02;;;;;;;2.67;1.17;;;;;;;22.23;41.25;93437.94;5030137;28;20715;-90
2022/06/16 05:11:28;;;;;;;1.55;1.13;;;;;;;22.27;41.08;93454.13;5023569;28;20041;-90
2022/06/16 05:13:53;;;;;;;0.90;0.80;;;;;;;22.27;40.90;93453.41;5019111;28;20037;-90
2022/06/16 05:16:19;;;;;;;1.15;1.05;;;;;;;22.27;41.21;93450.66;4997936;28;20492;-90
2022/06/16 05:18:44;;;;;;;1.35;0.90;;;;;;;22.32;41.25;93442.22;5016558;28;20052;-90
2022/06/16 05:21:12;;;;;;;1.35;1.08;;;;;;;22.32;41.06;93449.75;5015382;28;20052;-90
2022/06/16 05:23:37;;;;;;;2.22;1.10;;;;;;;22.34;41.04;93441.69;5010680;28;20068;-89
2022/06/16 05:26:03;;;;;;;1.13;0.90;;;;;;;22.35;41.06;93443.19;5022888;28;20037;-90
2022/06/16 05:28:29;;;;;;;0.90;0.80;;;;;;;22.32;41.08;93450.50;5040614;28;20033;-91
2022/06/16 05:30:54;;;;;;;1.38;0.88;;;;;;;22.35;40.98;93443.91;5045805;28;20428;-90
2022/06/16 05:33:20;;;;;;;1.15;0.90;;;;;;;22.37;40.99;93437.88;5025058;28;20041;-90
2022/06/16 05:35:56;;;;;;;2.38;1.10;;;;;;;22.35;40.99;93441.16;5031882;28;20033;-90
2022/06/16 05:38:21;;;;;;;0.70;0.63;;;;;;;22.40;41.23;93445.06;5044866;28;20432;-90
2022/06/16 05:40:46;;;;;;;0.80;0.80;;;;;;;22.39;41.10;93447.09;5045265;28;20049;-89
2022/06/16 05:43:12;;;;;;;2.42;0.70;;;;;;;22.38;41.09;93444.88;5043893;28;20044;-89
2022/06/16 05:45:37;;;;;;;0.98;0.70;;;;;;;22.44;40.92;93443.47;5014691;28;20034;-90
2022/06/16 05:48:03;;;;;;;0.98;0.80;;;;;;;22.43;40.94;93452.28;5025752;28;20423;-89
2022/06/16 05:50:28;;;;;;;1.10;0.90;;;;;;;22.42;40.93;93454.28;5028339;28;20110;-90
2022/06/16 05:52:54;;;;;;;2.17;0.90;;;;;;;22.42;41.19;93454.28;5024498;28;20033;-90
2022/06/16 05:55:19;;;;;;;1.00;0.75;;;;;;;22.42;41.01;93459.06;5011667;28;20408;-90
2022/06/16 05:57:45;;;;;;;0.55;0.55;;;;;;;22.41;40.98;93465.84;5015813;28;20056;-90
2022/06/16 06:00:11;;;;;;;2.95;0.80;;;;;;;22.41;40.94;93471.34;4998870;28;20049;-89
2022/06/16 06:02:37;;;;;;;1.25;0.90;;;;;;;22.42;41.25;93468.06;5000484;28;20144;-90
2022/06/16 06:05:03;;;;;;;0.82;0.57;;;;;;;22.45;41.07;93466.97;5008313;28;20049;-90
2022/06/16 06:16:25;;;;;;;2.58;0.60;;;;;;;22.45;41.23;93478.00;4999318;28;20404;-90
2022/06/16 06:18:33;;;;;;;0.63;0.55;;;;;;;22.48;40.93;93489.97;4969314;28;20129;-90
2022/06/16 06:20:59;;;;;;;1.70;0.60;;;;;;;22.49;41.52;93489.44;4984117;28;20070;-90
2022/06/16 06:23:24;;;;;;;0.57;0.50;;;;;;;22.48;41.13;93490.72;4968133;28;20034;-90
2022/06/16 06:25:49;;;;;;;0.98;0.88;;;;;;;22.47;40.88;93497.50;4971127;28;20051;-90
2022/06/16 06:28:17;;;;;;;0.73;0.73;;;;;;;22.49;41.08;93494.94;4966836;28;20043;-91
2022/06/16 06:30:43;;;;;;;0.70;0.50;;;;;;;22.51;41.09;93486.88;4986459;28;20046;-90
2022/06/16 06:33:08;;;;;;;1.83;0.50;;;;;;;22.50;41.41;93496.44;4986985;28;20046;-89
2022/06/16 06:35:34;;;;;;;0.70;0.70;;;;;;;22.56;40.95;93490.78;4970761;28;20035;-90
2022/06/16 06:38:00;;;;;;;0.52;0.52;;;;;;;22.57;41.30;93492.25;4971470;28;20045;-90
2022/06/16 06:40:31;;;;;;;0.40;0.40;;;;;;;22.57;41.14;93478.47;4970324;28;20034;-90
2022/06/16 06:42:56;;;;;;;0.50;0.50;;;;;;;22.61;41.05;93478.88;4971054;28;20045;-91
2022/06/16 06:45:22;;;;;;;0.50;0.45;;;;;;;22.61;40.97;93478.88;4986505;28;20046;-89
2022/06/16 06:47:47;;;;;;;0.47;0.43;;;;;;;22.65;41.18;93487.56;4986897;28;20092;-89
2022/06/16 06:50:27;;;;;;;0.52;0.50;;;;;;;22.62;41.03;93482.38;4986057;28;20505;-89
2022/06/16 06:52:52;;;;;;;0.45;0.45;;;;;;;22.63;41.05;93481.09;4979005;28;20042;-89
2022/06/16 06:55:18;;;;;;;0.68;0.50;;;;;;;22.65;40.95;93482.06;4991865;28;20095;-90
2022/06/16 06:57:43;;;;;;;0.70;0.50;;;;;;;22.69;41.02;93498.25;5014501;28;20044;-90
2022/06/16 07:00:09;;;;;;;0.40;0.40;;;;;;;22.68;41.07;93510.56;5030449;28;20490;-89
2022/06/16 07:02:35;;;;;;;0.50;0.50;;;;;;;22.71;41.08;93503.97;5014039;28;20040;-89
2022/06/16 07:05:00;;;;;;;0.90;0.70;;;;;;;22.68;41.02;93500.28;5043922;28;20049;-89
2022/06/16 07:07:26;;;;;;;0.55;0.55;;;;;;;22.71;41.07;93509.47;5013395;28;20426;-90
2022/06/16 07:09:51;;;;;;;5.05;0.90;;;;;;;22.72;40.87;93508.22;4997754;28;20044;-89
2022/06/16 07:12:17;;;;;;;6.18;5.22;;;;;;;22.70;40.98;93500.47;5030879;28;20124;-90
2022/06/16 07:14:43;;;;;;;10.60;8.25;;;;;;;22.70;40.90;93500.47;5014252;28;20107;-90
2022/06/16 07:17:08;;;;;;;5.25;4.75;;;;;;;22.73;41.18;93502.16;4996374;28;20047;-90
2022/06/16 07:19:35;;;;;;;7.15;3.90;;;;;;;22.74;40.95;93500.13;4998056;28;20029;-89
2022/06/16 07:22:01;;;;;;;3.40;2.80;;;;;;;22.74;40.94;93487.06;5014227;28;20064;-90
2022/06/16 07:24:26;;;;;;;2.35;1.80;;;;;;;22.75;41.09;93485.81;5026121;28;20083;-91
2022/06/16 07:26:52;;;;;;;32.28;21.65;;;;;;;22.72;41.35;93486.91;4997061;28;20037;-89
2022/06/16 07:29:17;;;;;;;49.45;34.65;;;;;;;22.77;41.33;93494.31;4995060;28;20040;-90
2022/06/16 07:31:43;;;;;;;13.38;9.57;;;;;;;22.75;40.97;93485.06;5014153;28;20091;-89
2022/06/16 07:34:08;;;;;;;10.73;5.63;;;;;;;22.75;41.25;93493.31;5029666;28;20086;-90
2022/06/16 07:36:34;;;;;;;8.50;4.65;;;;;;;22.76;41.21;93489.28;5029845;28;20033;-89
2022/06/16 07:38:59;;;;;;;10.32;4.05;;;;;;;22.75;41.22;93485.06;5013473;28;20045;-90
2022/06/16 07:41:31;;;;;;;6.80;4.10;;;;;;;22.76;41.20;93475.53;4996500;28;20048;-89
2022/06/16 07:43:57;;;;;;;5.25;3.60;;;;;;;22.79;41.23;93485.50;5014448;28;20090;-90
2022/06/16 07:46:23;;;;;;;12.13;7.28;;;;;;;22.77;41.18;93483.28;5013115;28;20040;-90
2022/06/16 07:48:49;;;;;;;20.63;17.13;;;;;;;22.78;41.27;93487.50;5013829;28;20045;-90
2022/06/16 07:51:14;;;;;;;9.75;5.93;;;;;;;22.78;41.27;93482.00;5029310;28;20452;-92
2022/06/16 07:53:40;;;;;;;5.18;4.25;;;;;;;22.80;41.32;93479.44;5013137;28;20385;-89
2022/06/16 07:56:05;;;;;;;9.60;3.92;;;;;;;22.77;41.23;93486.03;5026073;28;20041;-89
2022/06/16 07:58:32;;;;;;;7.50;4.40;;;;;;;22.80;41.41;93476.69;5025759;28;20041;-90
2022/06/16 08:00:58;;;;;;;11.32;6.57;;;;;;;22.77;41.48;93479.75;5042545;28;20042;-89
2022/06/16 08:03:26;;;;;;;17.48;7.00;;;;;;;22.82;41.63;93484.44;5026516;28;20099;-89
2022/06/16 08:05:53;;;;;;;13.75;6.05;;;;;;;22.82;41.50;93481.66;4985957;28;20041;-89
2022/06/16 08:08:22;;;;;;;12.18;5.43;;;;;;;22.81;41.51;93482.94;5009613;28;20043;-90
2022/06/16 08:10:47;;;;;;;12.68;5.97;;;;;;;22.80;41.40;93486.97;5013628;28;20056;-89
2022/06/16 08:13:13;;;;;;;6.80;5.22;;;;;;;22.80;41.38;93482.22;5020918;28;20075;-89
2022/06/16 08:15:38;;;;;;;12.05;5.85;;;;;;;22.80;41.62;93481.47;5012454;28;20107;-89
2022/06/16 08:18:04;;;;;;;14.13;6.10;;;;;;;22.82;41.43;93487.19;5019542;28;20041;-90
2022/06/16 08:20:29;;;;;;;8.50;4.93;;;;;;;22.79;41.60;93483.47;5019440;28;20036;-89
2022/06/16 08:22:55;;;;;;;11.07;5.65;;;;;;;22.78;41.87;93487.50;5045575;28;20060;-89
2022/06/16 08:25:20;;;;;;;6.25;4.22;;;;;;;22.79;41.46;93477.97;5017259;28;20079;-89
2022/06/16 08:27:47;;;;;;;10.23;4.53;;;;;;;22.80;41.32;93467.69;5029387;28;20104;-90
2022/06/16 08:30:14;;;;;;;7.40;4.57;;;;;;;22.79;41.57;93469.69;5015827;28;20059;-90
2022/06/16 08:32:40;;;;;;;8.80;4.85;;;;;;;22.79;41.62;93466.94;5029699;28;20111;-90
2022/06/16 08:35:05;;;;;;;5.35;3.90;;;;;;;22.81;41.56;93469.91;5012669;28;20029;-89
2022/06/16 08:37:31;;;;;;;8.10;4.72;;;;;;;22.81;41.58;93469.16;5029694;28;20129;-90
2022/06/16 08:39:56;;;;;;;7.80;4.35;;;;;;;22.82;41.58;93471.38;5012894;28;20041;-89
2022/06/16 08:42:46;;;;;;;9.45;4.28;;;;;;;22.81;41.55;93467.16;5012321;28;20296;-89
2022/06/16 08:45:34;;;;;;;9.70;4.47;;;;;;;22.79;41.53;93466.22;5047189;28;20038;-89
2022/06/16 08:48:18;;;;;;;6.32;4.20;;;;;;;22.82;41.70;93471.38;5012208;28;20052;-88
2022/06/16 08:51:03;;;;;;;7.10;3.90;;;;;;;22.82;41.61;93467.88;5044497;28;20107;-89
2022/06/16 08:53:39;;;;;;;8.52;3.78;;;;;;;22.81;41.71;93475.41;5018077;28;20377;-88
2022/06/16 08:56:09;;;;;;;5.95;3.92;;;;;;;22.79;41.62;93474.47;5023995;28;20033;-89
2022/06/16 08:58:41;;;;;;;7.15;3.47;;;;;;;22.81;41.81;93466.41;4990796;28;20137;-89
2022/06/16 09:01:10;;;;;;;7.50;3.55;;;;;;;22.79;41.82;93464.19;5026146;28;20037;-88
2022/06/16 09:03:46;;;;;;;4.87;3.60;;;;;;;22.78;41.84;93464.72;5013447;28;20025;-88
2022/06/16 09:06:22;;;;;;;6.55;3.50;;;;;;;22.78;41.77;93462.72;5000739;28;20044;-88
2022/06/16 09:08:56;;;;;;;7.47;3.80;;;;;;;22.80;41.83;93460.16;4993614;28;20045;-89
2022/06/16 09:11:47;;;;;;;5.57;3.55;;;;;;;22.80;41.67;93465.66;4979108;28;20065;-91
2022/06/16 09:15:10;;;;;;;8.70;3.80;;;;;;;22.80;41.50;93462.91;4985792;28;20125;-89
2022/06/16 09:17:18;;;;;;;5.40;3.25;;;;;;;22.80;41.72;93462.19;4984175;28;20046;-88
2022/06/16 09:19:57;;;;;;;6.50;3.47;;;;;;;22.80;41.74;93476.69;5010376;28;20041;-89
2022/06/16 09:22:39;;;;;;;5.32;2.85;;;;;;;22.81;41.92;93466.41;4976727;28;20655;-89
2022/06/16 09:25:34;;;;;;;5.80;2.83;;;;;;;22.81;41.82;93466.41;5009711;28;20045;-89
2022/06/16 09:28:04;;;;;;;5.07;2.92;;;;;;;22.82;41.94;93468.63;5028987;28;20451;-89
2022/06/16 09:30:36;;;;;;;4.43;2.97;;;;;;;22.80;41.89;93454.66;4992183;28;20041;-89
2022/06/16 09:33:06;;;;;;;4.43;2.50;;;;;;;22.78;42.19;93454.44;5009534;28;20038;-89
2022/06/16 09:35:47;;;;;;;5.88;2.53;;;;;;;22.80;41.89;93457.41;4976238;28;20037;-89
2022/06/16 09:38:14;;;;;;;4.13;3.10;;;;;;;22.83;42.00;93447.31;5008770;28;20072;-88
2022/06/16 09:40:44;;;;;;;3.78;2.80;;;;;;;22.82;41.83;93449.34;5008943;28;20109;-89
2022/06/16 09:43:30;;;;;;;4.20;2.60;;;;;;;22.81;41.98;93445.09;5007979;28;20042;-88
2022/06/16 09:46:06;;;;;;;3.33;2.45;;;;;;;22.81;42.14;93450.63;5009441;28;20141;-88
2022/06/16 09:48:51;;;;;;;3.13;2.60;;;;;;;22.82;42.05;93440.31;4976085;28;20056;-89
2022/06/16 09:51:36;;;;;;;4.25;2.47;;;;;;;22.82;41.98;93451.34;4991788;28;20145;-89
2022/06/16 09:54:31;;;;;;;5.78;3.33;;;;;;;22.80;42.05;93457.41;4992090;28;20038;-89
2022/06/16 09:57:07;;;;;;;6.25;2.80;;;;;;;22.81;42.06;93458.13;5009233;28;20073;-89
2022/06/16 09:59:39;;;;;;;5.07;2.72;;;;;;;22.81;41.86;93455.38;4975472;28;20137;-89
2022/06/16 10:02:10;;;;;;;3.15;2.20;;;;;;;22.81;42.18;93458.88;5001768;28;20543;-88
2022/06/16 10:04:35;;;;;;;3.10;2.47;;;;;;;22.83;41.90;93461.84;4994529;28;20417;-89
2022/06/16 10:07:17;;;;;;;3.22;2.10;;;;;;;22.79;42.20;93457.94;4995286;28;20045;-89
2022/06/16 10:09:55;;;;;;;4.10;2.40;;;;;;;22.81;42.12;93464.38;5006488;28;20544;-89
2022/06/16 10:13:04;;;;;;;4.03;2.30;;;;;;;22.79;42.15;93472.47;4990077;28;20127;-89
2022/06/16 10:15:44;;;;;;;3.13;2.28;;;;;;;22.80;41.88;93468.44;4990426;28;20568;-89
2022/06/16 10:18:10;;;;;;;3.17;2.03;;;;;;;22.82;42.05;93479.66;5006544;28;20177;-89
2022/06/16 10:20:36;;;;;;;4.47;1.98;;;;;;;22.83;42.13;93481.13;4990595;28;20038;-89
2022/06/16 10:23:28;;;;;;;2.38;1.83;;;;;;;22.81;41.99;93482.94;4990012;28;20061;-89
2022/06/16 10:25:55;;;;;;;3.67;1.65;;;;;;;22.81;42.07;93483.69;4966816;28;20054;-89
2022/06/16 10:28:29;;;;;;;1.75;1.50;;;;;;;22.84;42.09;93482.63;5006078;28;20049;-89
2022/06/16 10:30:56;;;;;;;2.00;1.50;;;;;;;22.83;42.29;93497.69;5006020;28;20543;-89
2022/06/16 10:33:24;;;;;;;2.15;1.75;;;;;;;22.87;42.21;93498.09;5010220;28;20045;-89
2022/06/16 10:35:58;;;;;;;2.20;1.70;;;;;;;22.87;42.09;93489.06;5008465;28;20034;-89
2022/06/16 10:38:38;;;;;;;3.58;1.70;;;;;;;22.82;42.14;93503.72;4991449;28;20076;-89
2022/06/16 10:41:05;;;;;;;2.50;1.80;;;;;;;22.84;42.05;93501.91;5010775;28;20499;-89
2022/06/16 10:43:36;;;;;;;2.85;1.73;;;;;;;22.87;41.97;93500.84;4994841;28;20515;-89
2022/06/16 10:46:14;;;;;;;1.83;1.40;;;;;;;22.83;42.29;93497.69;5011561;28;20041;-88
2022/06/16 10:48:44;;;;;;;2.25;1.73;;;;;;;22.88;42.16;93493.31;4995238;28;20041;-88
2022/06/16 10:51:15;;;;;;;2.60;1.60;;;;;;;22.84;42.31;93496.41;5004786;28;20045;-89
2022/06/16 10:53:45;;;;;;;1.50;1.38;;;;;;;22.83;42.35;93486.66;5010847;28;20175;-88
2022/06/16 10:56:16;;;;;;;2.33;1.67;;;;;;;22.84;42.33;93479.84;5022126;28;20045;-89
2022/06/16 10:58:49;;;;;;;;;;;;;;;22.80;42.18;93487.72;5024251;28;20121;-89
2022/06/16 11:01:18;;;;;;;1.15;1.05;;;;;;;22.84;42.52;93485.38;5026423;28;19925;-89
2022/06/16 11:03:47;;;;;;;3.15;1.42;;;;;;;22.85;42.36;93488.88;5027209;28;20053;-89
2022/06/16 11:06:14;;;;;;;1.83;1.63;;;;;;;22.86;42.58;93493.09;5021180;28;20395;-89
2022/06/16 11:08:44;;;;;;;2.95;1.55;;;;;;;22.86;42.39;93485.56;5009624;28;20030;-89
2022/06/16 11:11:11;;;;;;;1.70;1.33;;;;;;;22.85;42.55;93488.88;5009648;28;20072;-89
2022/06/16 11:13:38;;;;;;;4.13;1.40;;;;;;;22.85;42.55;93486.84;5011467;28;20045;-89
2022/06/16 11:16:11;;;;;;;3.30;1.30;;;;;;;22.85;42.60;93494.38;5020916;28;20084;-93
2022/06/16 11:18:37;;;;;;;2.90;1.23;;;;;;;22.86;42.53;93496.59;5010533;28;20041;-91
2022/06/16 11:21:13;;;;;;;1.67;1.30;;;;;;;22.85;42.45;93486.13;5003208;28;20420;-89
2022/06/16 11:23:44;;;;;;;1.42;1.33;;;;;;;22.86;42.52;93487.59;5009161;28;20041;-89
2022/06/16 11:26:24;;;;;;;1.88;1.40;;;;;;;22.85;42.29;93486.13;5006478;28;20041;-89
2022/06/16 11:28:56;;;;;;;1.98;1.48;;;;;;;22.88;42.47;93485.78;5002775;28;20499;-89
2022/06/16 11:31:23;;;;;;;1.45;1.35;;;;;;;22.87;42.63;93467.03;4995182;28;20511;-88
2022/06/16 11:34:08;;;;;;;2.05;1.40;;;;;;;22.88;42.54;93466.47;5002378;28;20443;-88
2022/06/16 11:37:00;;;;;;;1.83;1.27;;;;;;;22.85;42.54;93466.81;5021335;28;20084;-89
2022/06/16 11:39:50;;;;;;;1.58;1.20;;;;;;;22.86;42.48;93469.03;5024844;28;20072;-88
2022/06/16 11:42:18;;;;;;;1.70;1.20;;;;;;;22.85;42.74;93464.81;5005933;28;20121;-89
2022/06/16 11:44:52;;;;;;;1.42;0.90;;;;;;;22.88;42.53;93457.47;5008606;28;20042;-89
2022/06/16 11:47:35;;;;;;;1.38;1.10;;;;;;;22.85;42.52;93462.03;5022490;28;20033;-89
2022/06/16 11:50:17;;;;;;;3.15;1.02;;;;;;;22.90;42.68;93460.44;5029310;28;20056;-89
2022/06/16 11:52:46;;;;;;;1.88;1.30;;;;;;;22.92;42.54;93457.13;5014396;28;20053;-89
2022/06/16 11:55:21;;;;;;;1.65;1.05;;;;;;;22.90;42.50;93458.41;5028849;28;20037;-89
2022/06/16 11:58:21;;;;;;;1.58;1.17;;;;;;;22.90;42.59;93454.91;5029802;28;20064;-89
2022/06/16 12:00:52;;;;;;;0.85;0.82;;;;;;;22.92;42.64;93451.63;5014055;28;20120;-89
2022/06/16 12:03:36;;;;;;;1.25;1.13;;;;;;;22.86;42.71;93455.25;4993723;28;20403;-89
2022/06/16 12:06:19;;;;;;;1.10;1.00;;;;;;;22.89;42.67;93454.19;5027559;28;20381;-89